sensor_id;sensor_type;location;lat;lon;timestamp;pressure;altitude;pressure_sealevel;temperature;humidity
4705;BME280;2366;51.332;6.610;2023-06-14T05:43:02;101369.06;;;32.58;22.33
4705;BME280;2366;51.332;6.610;2023-06-14T05:45:27;101372.41;;;33.03;21.99
4705;BME280;2366;51.332;6.610;2023-06-14T05:47:53;101383.69;;;32.95;21.33
4705;BME280;2366;51.332;6.610;2023-06-14T05:50:20;101369.16;;;31.74;23.01
4705;BME280;2366;51.332;6.610;2023-06-14T05:52:45;101369.69;;;31.89;22.66
4705;BME280;2366;51.332;6.610;2023-06-14T05:55:11;101374.47;;;32.07;22.89
4705;BME280;2366;51.332;6.610;2023-06-14T05:57:37;101373.88;;;31.99;22.64
4705;BME280;2366;51.332;6.610;2023-06-14T06:00:03;101374.19;;;31.77;22.94
4705;BME280;2366;51.332;6.610;2023-06-14T06:02:36;101376.00;;;32.03;22.15
4705;BME280;2366;51.332;6.610;2023-06-14T06:05:01;101380.09;;;32.19;22.26
4705;BME280;2366;51.332;6.610;2023-06-14T06:07:27;101376.34;;;32.89;21.89
4705;BME280;2366;51.332;6.610;2023-06-14T06:09:52;101388.13;;;33.70;20.82
4705;BME280;2366;51.332;6.610;2023-06-14T06:12:18;101384.03;;;33.79;20.65
4705;BME280;2366;51.332;6.610;2023-06-14T06:14:43;101388.84;;;34.14;20.86
4705;BME280;2366;51.332;6.610;2023-06-14T06:17:09;101385.91;;;34.51;20.36
4705;BME280;2366;51.332;6.610;2023-06-14T06:19:34;101397.47;;;33.99;20.31
4705;BME280;2366;51.332;6.610;2023-06-14T06:22:00;101391.88;;;34.48;20.12
4705;BME280;2366;51.332;6.610;2023-06-14T06:24:25;101391.56;;;34.80;19.91
4705;BME280;2366;51.332;6.610;2023-06-14T06:26:50;101388.41;;;35.35;19.40
4705;BME280;2366;51.332;6.610;2023-06-14T06:29:16;101390.41;;;36.21;19.03
4705;BME280;2366;51.332;6.610;2023-06-14T06:31:41;101391.00;;;35.94;18.64
4705;BME280;2366;51.332;6.610;2023-06-14T06:34:06;101400.44;;;35.69;18.75
4705;BME280;2366;51.332;6.610;2023-06-14T06:36:32;101393.69;;;35.48;19.08
4705;BME280;2366;51.332;6.610;2023-06-14T06:38:57;101400.16;;;35.07;19.16
4705;BME280;2366;51.332;6.610;2023-06-14T06:41:23;101411.91;;;35.37;19.38
4705;BME280;2366;51.332;6.610;2023-06-14T06:43:48;101406.00;;;35.46;19.00
4705;BME280;2366;51.332;6.610;2023-06-14T06:46:14;101407.38;;;34.72;19.54
4705;BME280;2366;51.332;6.610;2023-06-14T06:48:39;101402.81;;;34.66;19.19
4705;BME280;2366;51.332;6.610;2023-06-14T06:51:04;101411.19;;;34.71;19.26
4705;BME280;2366;51.332;6.610;2023-06-14T06:53:30;101395.34;;;35.49;18.78
4705;BME280;2366;51.332;6.610;2023-06-14T06:55:56;101398.13;;;35.26;18.35
4705;BME280;2366;51.332;6.610;2023-06-14T06:58:21;101422.34;;;35.12;18.50
4705;BME280;2366;51.332;6.610;2023-06-14T07:00:47;101421.00;;;35.38;18.62
4705;BME280;2366;51.332;6.610;2023-06-14T07:03:12;101425.47;;;35.27;18.61
4705;BME280;2366;51.332;6.610;2023-06-14T07:05:38;101425.56;;;35.85;17.72
4705;BME280;2366;51.332;6.610;2023-06-14T07:08:03;101421.88;;;36.08;18.17
4705;BME280;2366;51.332;6.610;2023-06-14T07:10:29;101427.31;;;36.82;17.39
4705;BME280;2366;51.332;6.610;2023-06-14T07:12:54;101430.47;;;36.40;17.48
4705;BME280;2366;51.332;6.610;2023-06-14T07:15:20;101437.69;;;36.75;17.44
4705;BME280;2366;51.332;6.610;2023-06-14T07:17:45;101435.75;;;36.92;17.04
4705;BME280;2366;51.332;6.610;2023-06-14T07:20:11;101447.00;;;37.64;16.80
4705;BME280;2366;51.332;6.610;2023-06-14T07:22:41;101431.63;;;37.29;17.16
4705;BME280;2366;51.332;6.610;2023-06-14T07:25:08;101443.34;;;37.58;16.18
4705;BME280;2366;51.332;6.610;2023-06-14T07:27:34;101447.66;;;36.02;17.13
4705;BME280;2366;51.332;6.610;2023-06-14T07:29:59;101430.44;;;35.66;17.77
4705;BME280;2366;51.332;6.610;2023-06-14T07:32:25;101424.97;;;36.11;17.85
4705;BME280;2366;51.332;6.610;2023-06-14T07:34:50;101427.34;;;36.19;17.31
4705;BME280;2366;51.332;6.610;2023-06-14T07:37:16;101421.56;;;36.21;17.78
4705;BME280;2366;51.332;6.610;2023-06-14T07:39:41;101442.13;;;36.76;16.77
4705;BME280;2366;51.332;6.610;2023-06-14T07:42:06;101432.16;;;36.58;16.99
4705;BME280;2366;51.332;6.610;2023-06-14T07:44:32;101427.97;;;36.55;16.85
4705;BME280;2366;51.332;6.610;2023-06-14T07:46:57;101438.28;;;35.74;17.70
4705;BME280;2366;51.332;6.610;2023-06-14T07:49:25;101431.44;;;35.88;17.17
4705;BME280;2366;51.332;6.610;2023-06-14T07:51:50;101425.31;;;36.15;16.92
4705;BME280;2366;51.332;6.610;2023-06-14T07:54:16;101433.75;;;35.79;17.14
4705;BME280;2366;51.332;6.610;2023-06-14T07:56:42;101439.56;;;37.08;16.92
4705;BME280;2366;51.332;6.610;2023-06-14T07:59:07;101464.75;;;37.68;15.73
4705;BME280;2366;51.332;6.610;2023-06-14T08:01:33;101441.22;;;36.70;16.20
4705;BME280;2366;51.332;6.610;2023-06-14T08:03:58;101435.56;;;36.99;16.67
4705;BME280;2366;51.332;6.610;2023-06-14T08:06:24;101439.97;;;38.27;15.58
4705;BME280;2366;51.332;6.610;2023-06-14T08:08:50;101434.16;;;38.24;14.75
4705;BME280;2366;51.332;6.610;2023-06-14T08:11:15;101437.28;;;37.39;15.64
4705;BME280;2366;51.332;6.610;2023-06-14T08:13:41;101445.00;;;38.03;15.01
4705;BME280;2366;51.332;6.610;2023-06-14T08:16:06;101446.50;;;38.16;15.40
4705;BME280;2366;51.332;6.610;2023-06-14T08:18:32;101431.91;;;38.26;15.29
4705;BME280;2366;51.332;6.610;2023-06-14T08:20:59;101437.66;;;38.46;14.98
4705;BME280;2366;51.332;6.610;2023-06-14T08:23:24;101451.78;;;38.17;14.97
4705;BME280;2366;51.332;6.610;2023-06-14T08:25:49;101437.88;;;37.85;15.04
4705;BME280;2366;51.332;6.610;2023-06-14T08:28:15;101426.66;;;38.24;14.80
4705;BME280;2366;51.332;6.610;2023-06-14T08:30:42;101442.06;;;37.93;15.32
4705;BME280;2366;51.332;6.610;2023-06-14T08:33:07;101432.63;;;37.89;15.41
4705;BME280;2366;51.332;6.610;2023-06-14T08:35:33;101436.38;;;37.55;15.52
4705;BME280;2366;51.332;6.610;2023-06-14T08:37:58;101425.44;;;38.15;15.18
4705;BME280;2366;51.332;6.610;2023-06-14T08:40:23;101428.22;;;38.47;14.80
4705;BME280;2366;51.332;6.610;2023-06-14T08:42:54;101450.75;;;38.24;15.18
4705;BME280;2366;51.332;6.610;2023-06-14T08:45:20;101433.72;;;38.10;15.42
4705;BME280;2366;51.332;6.610;2023-06-14T08:47:47;101424.31;;;38.70;15.23
4705;BME280;2366;51.332;6.610;2023-06-14T08:50:21;101428.72;;;38.71;15.12
4705;BME280;2366;51.332;6.610;2023-06-14T08:52:54;101437.03;;;38.71;15.01
4705;BME280;2366;51.332;6.610;2023-06-14T08:55:22;101433.75;;;38.15;15.61
4705;BME280;2366;51.332;6.610;2023-06-14T08:57:53;101422.03;;;38.03;15.00
4705;BME280;2366;51.332;6.610;2023-06-14T09:00:19;101432.75;;;37.72;15.27
4705;BME280;2366;51.332;6.610;2023-06-14T09:02:46;101422.72;;;37.66;16.13
4705;BME280;2366;51.332;6.610;2023-06-14T09:05:12;101442.88;;;38.42;15.58
4705;BME280;2366;51.332;6.610;2023-06-14T09:07:40;101426.75;;;38.34;15.56
4705;BME280;2366;51.332;6.610;2023-06-14T09:10:09;101426.19;;;38.32;15.81
4705;BME280;2366;51.332;6.610;2023-06-14T09:12:35;101447.25;;;38.66;15.08
4705;BME280;2366;51.332;6.610;2023-06-14T09:15:01;101442.03;;;37.88;15.50
4705;BME280;2366;51.332;6.610;2023-06-14T09:17:32;101440.88;;;37.39;16.03
4705;BME280;2366;51.332;6.610;2023-06-14T09:19:58;101447.56;;;37.88;16.05
4705;BME280;2366;51.332;6.610;2023-06-14T09:22:24;101444.78;;;37.05;16.26
4705;BME280;2366;51.332;6.610;2023-06-14T09:24:49;101438.41;;;36.36;17.10
4705;BME280;2366;51.332;6.610;2023-06-14T09:27:15;101434.19;;;36.17;17.15
4705;BME280;2366;51.332;6.610;2023-06-14T09:29:41;101429.34;;;35.67;18.10
4705;BME280;2366;51.332;6.610;2023-06-14T09:32:06;101437.56;;;35.14;18.51
4705;BME280;2366;51.332;6.610;2023-06-14T09:34:33;101438.72;;;35.42;17.76
4705;BME280;2366;51.332;6.610;2023-06-14T09:37:00;101425.16;;;35.64;18.05
4705;BME280;2366;51.332;6.610;2023-06-14T09:39:25;101436.06;;;35.59;18.14
4705;BME280;2366;51.332;6.610;2023-06-14T09:41:52;101463.66;;;35.24;17.49
4705;BME280;2366;51.332;6.610;2023-06-14T09:44:17;101452.84;;;34.87;18.21
4705;BME280;2366;51.332;6.610;2023-06-14T09:46:43;101439.09;;;34.33;19.07
4705;BME280;2366;51.332;6.610;2023-06-14T09:49:09;101440.19;;;35.09;19.29
4705;BME280;2366;51.332;6.610;2023-06-14T09:51:37;101443.81;;;37.11;17.11
4705;BME280;2366;51.332;6.610;2023-06-14T09:54:08;101450.06;;;37.45;16.87
4705;BME280;2366;51.332;6.610;2023-06-14T09:56:41;101443.69;;;37.23;16.94
4705;BME280;2366;51.332;6.610;2023-06-14T09:59:10;101455.69;;;36.77;17.41
4705;BME280;2366;51.332;6.610;2023-06-14T10:01:42;101462.72;;;36.11;17.38
4705;BME280;2366;51.332;6.610;2023-06-14T10:04:08;101442.19;;;36.47;17.50
4705;BME280;2366;51.332;6.610;2023-06-14T10:06:39;101444.63;;;36.60;17.03
4705;BME280;2366;51.332;6.610;2023-06-14T10:09:08;101453.66;;;35.58;18.12
4705;BME280;2366;51.332;6.610;2023-06-14T10:11:35;101449.63;;;35.02;18.54
4705;BME280;2366;51.332;6.610;2023-06-14T10:14:01;101451.78;;;34.88;18.50
4705;BME280;2366;51.332;6.610;2023-06-14T10:16:32;101446.53;;;35.22;18.06
4705;BME280;2366;51.332;6.610;2023-06-14T10:19:23;101448.78;;;34.89;17.86
4705;BME280;2366;51.332;6.610;2023-06-14T10:21:58;101447.94;;;34.05;18.37
4705;BME280;2366;51.332;6.610;2023-06-14T10:24:35;101436.63;;;31.62;20.65
4705;BME280;2366;51.332;6.610;2023-06-14T10:27:06;101465.75;;;30.36;22.16
4705;BME280;2366;51.332;6.610;2023-06-14T10:32:26;101444.84;;;30.15;22.16
4705;BME280;2366;51.332;6.610;2023-06-14T10:34:59;101443.69;;;29.83;23.08
4705;BME280;2366;51.332;6.610;2023-06-14T10:37:25;101436.19;;;30.05;22.91
4705;BME280;2366;51.332;6.610;2023-06-14T10:39:51;101448.03;;;30.25;22.40
4705;BME280;2366;51.332;6.610;2023-06-14T10:42:17;101435.03;;;29.79;22.67
4705;BME280;2366;51.332;6.610;2023-06-14T10:44:45;101440.38;;;29.53;23.59
4705;BME280;2366;51.332;6.610;2023-06-14T10:47:31;101437.56;;;29.39;23.52
4705;BME280;2366;51.332;6.610;2023-06-14T10:50:06;101434.75;;;29.61;23.48
4705;BME280;2366;51.332;6.610;2023-06-14T10:52:38;101435.56;;;29.61;22.89
4705;BME280;2366;51.332;6.610;2023-06-14T10:55:14;101430.81;;;29.35;23.74
4705;BME280;2366;51.332;6.610;2023-06-14T10:57:47;101427.66;;;29.73;23.76
4705;BME280;2366;51.332;6.610;2023-06-14T11:00:18;101442.16;;;29.32;23.21
4705;BME280;2366;51.332;6.610;2023-06-14T11:11:13;101459.94;;;28.50;24.67
4705;BME280;2366;51.332;6.610;2023-06-14T11:13:41;101440.47;;;28.38;24.73
4705;BME280;2366;51.332;6.610;2023-06-14T11:16:18;101442.38;;;28.59;24.68
4705;BME280;2366;51.332;6.610;2023-06-14T11:18:46;101441.34;;;28.60;24.37
4705;BME280;2366;51.332;6.610;2023-06-14T11:21:15;101434.78;;;29.04;24.04
4705;BME280;2366;51.332;6.610;2023-06-14T11:23:40;101443.81;;;28.77;24.26
4705;BME280;2366;51.332;6.610;2023-06-14T11:26:06;101434.84;;;28.40;24.91
4705;BME280;2366;51.332;6.610;2023-06-14T11:28:38;101432.66;;;28.50;24.94
4705;BME280;2366;51.332;6.610;2023-06-14T11:31:05;101432.47;;;28.80;24.57
4705;BME280;2366;51.332;6.610;2023-06-14T11:33:31;101422.59;;;29.00;24.74
4705;BME280;2366;51.332;6.610;2023-06-14T11:35:56;101433.66;;;28.71;24.35
4705;BME280;2366;51.332;6.610;2023-06-14T11:38:21;101426.91;;;28.66;24.42
4705;BME280;2366;51.332;6.610;2023-06-14T11:40:47;101428.91;;;28.79;24.43
4705;BME280;2366;51.332;6.610;2023-06-14T11:43:12;101439.19;;;28.56;24.41
4705;BME280;2366;51.332;6.610;2023-06-14T11:45:38;101428.59;;;28.24;24.79
4705;BME280;2366;51.332;6.610;2023-06-14T11:48:04;101436.88;;;28.16;24.94
4705;BME280;2366;51.332;6.610;2023-06-14T11:50:31;101439.38;;;28.33;25.30
4705;BME280;2366;51.332;6.610;2023-06-14T11:52:58;101432.75;;;28.20;25.39
4705;BME280;2366;51.332;6.610;2023-06-14T11:55:25;101427.44;;;28.34;25.56
4705;BME280;2366;51.332;6.610;2023-06-14T11:57:51;101435.09;;;28.45;25.69
4705;BME280;2366;51.332;6.610;2023-06-14T12:00:17;101416.16;;;28.37;25.38
4705;BME280;2366;51.332;6.610;2023-06-14T12:02:52;101424.16;;;28.23;26.32
4705;BME280;2366;51.332;6.610;2023-06-14T12:05:20;101434.44;;;28.43;25.82
4705;BME280;2366;51.332;6.610;2023-06-14T12:07:46;101421.75;;;28.50;25.73
4705;BME280;2366;51.332;6.610;2023-06-14T12:10:13;101426.81;;;28.53;25.86
4705;BME280;2366;51.332;6.610;2023-06-14T12:12:40;101428.47;;;28.33;25.90
4705;BME280;2366;51.332;6.610;2023-06-14T12:15:07;101417.69;;;28.46;26.18
4705;BME280;2366;51.332;6.610;2023-06-14T12:17:34;101419.22;;;28.49;26.46
4705;BME280;2366;51.332;6.610;2023-06-14T12:20:05;101428.72;;;28.38;26.61
4705;BME280;2366;51.332;6.610;2023-06-14T12:22:35;101432.50;;;28.37;26.10
4705;BME280;2366;51.332;6.610;2023-06-14T12:25:00;101432.34;;;28.23;26.54
4705;BME280;2366;51.332;6.610;2023-06-14T12:27:25;101422.06;;;28.04;26.15
4705;BME280;2366;51.332;6.610;2023-06-14T12:30:03;101423.91;;;28.18;26.21
4705;BME280;2366;51.332;6.610;2023-06-14T12:32:30;101415.88;;;28.32;26.52
4705;BME280;2366;51.332;6.610;2023-06-14T12:34:55;101426.66;;;28.40;26.75
4705;BME280;2366;51.332;6.610;2023-06-14T12:37:21;101433.97;;;28.54;26.26
4705;BME280;2366;51.332;6.610;2023-06-14T12:39:46;101428.69;;;28.74;26.10
4705;BME280;2366;51.332;6.610;2023-06-14T12:42:12;101456.50;;;28.63;25.91
4705;BME280;2366;51.332;6.610;2023-06-14T12:44:39;101418.38;;;28.48;26.38
4705;BME280;2366;51.332;6.610;2023-06-14T12:47:09;101432.38;;;28.66;26.09
4705;BME280;2366;51.332;6.610;2023-06-14T12:49:34;101432.66;;;28.50;26.55
4705;BME280;2366;51.332;6.610;2023-06-14T12:52:00;101419.53;;;28.39;26.85
4705;BME280;2366;51.332;6.610;2023-06-14T12:54:25;101428.75;;;28.59;26.76
4705;BME280;2366;51.332;6.610;2023-06-14T12:56:51;101423.50;;;28.86;26.53
4705;BME280;2366;51.332;6.610;2023-06-14T12:59:17;101428.84;;;28.94;26.28
4705;BME280;2366;51.332;6.610;2023-06-14T13:01:43;101426.25;;;28.86;26.45
4705;BME280;2366;51.332;6.610;2023-06-14T13:04:15;101416.47;;;28.98;26.36
4705;BME280;2366;51.332;6.610;2023-06-14T13:06:40;101413.28;;;28.66;26.61
4705;BME280;2366;51.332;6.610;2023-06-14T13:09:06;101413.88;;;28.62;26.75
4705;BME280;2366;51.332;6.610;2023-06-14T13:11:31;101424.13;;;28.60;26.58
4705;BME280;2366;51.332;6.610;2023-06-14T13:13:56;101424.91;;;28.75;26.68
4705;BME280;2366;51.332;6.610;2023-06-14T13:16:22;101409.41;;;28.76;26.63
4705;BME280;2366;51.332;6.610;2023-06-14T13:18:47;101434.75;;;28.98;26.25
4705;BME280;2366;51.332;6.610;2023-06-14T13:21:13;101432.44;;;28.73;26.16
4705;BME280;2366;51.332;6.610;2023-06-14T13:23:38;101421.88;;;28.63;26.27
4705;BME280;2366;51.332;6.610;2023-06-14T13:26:03;101428.72;;;28.81;26.62
4705;BME280;2366;51.332;6.610;2023-06-14T13:28:29;101432.09;;;28.83;26.32
4705;BME280;2366;51.332;6.610;2023-06-14T13:30:54;101418.28;;;28.84;25.80
4705;BME280;2366;51.332;6.610;2023-06-14T13:33:21;101417.97;;;29.01;26.09
4705;BME280;2366;51.332;6.610;2023-06-14T13:35:46;101420.38;;;29.11;26.05
4705;BME280;2366;51.332;6.610;2023-06-14T13:38:12;101422.44;;;29.08;25.88
4705;BME280;2366;51.332;6.610;2023-06-14T13:40:37;101418.28;;;28.84;25.98
4705;BME280;2366;51.332;6.610;2023-06-14T13:43:03;101417.47;;;28.91;26.12
4705;BME280;2366;51.332;6.610;2023-06-14T13:45:28;101412.31;;;29.02;26.03
4705;BME280;2366;51.332;6.610;2023-06-14T13:47:53;101415.19;;;29.22;25.61
4705;BME280;2366;51.332;6.610;2023-06-14T13:50:20;101411.25;;;29.03;25.17
4705;BME280;2366;51.332;6.610;2023-06-14T13:52:45;101411.47;;;29.02;25.80
4705;BME280;2366;51.332;6.610;2023-06-14T13:55:11;101402.38;;;28.95;25.92
4705;BME280;2366;51.332;6.610;2023-06-14T13:57:36;101399.28;;;28.98;25.84
4705;BME280;2366;51.332;6.610;2023-06-14T14:00:02;101396.38;;;29.06;26.00
4705;BME280;2366;51.332;6.610;2023-06-14T14:02:28;101395.41;;;29.14;26.14
4705;BME280;2366;51.332;6.610;2023-06-14T14:04:55;101411.13;;;29.12;26.26
4705;BME280;2366;51.332;6.610;2023-06-14T14:07:20;101407.66;;;28.96;26.07
4705;BME280;2366;51.332;6.610;2023-06-14T14:09:47;101406.59;;;28.97;26.20
4705;BME280;2366;51.332;6.610;2023-06-14T14:12:13;101408.94;;;29.00;26.11
4705;BME280;2366;51.332;6.610;2023-06-14T14:14:39;101406.59;;;28.97;26.27
4705;BME280;2366;51.332;6.610;2023-06-14T14:17:05;101402.44;;;29.01;26.12
4705;BME280;2366;51.332;6.610;2023-06-14T14:19:30;101401.59;;;29.01;26.26
4705;BME280;2366;51.332;6.610;2023-06-14T14:21:55;101405.91;;;28.88;26.57
4705;BME280;2366;51.332;6.610;2023-06-14T14:24:21;101400.03;;;28.85;26.49
4705;BME280;2366;51.332;6.610;2023-06-14T14:26:46;101398.88;;;29.01;26.57
4705;BME280;2366;51.332;6.610;2023-06-14T14:29:16;101402.03;;;29.04;26.37
4705;BME280;2366;51.332;6.610;2023-06-14T14:31:42;101400.53;;;28.95;26.55
4705;BME280;2366;51.332;6.610;2023-06-14T14:34:07;101411.25;;;29.03;26.45
4705;BME280;2366;51.332;6.610;2023-06-14T14:36:33;101410.13;;;29.13;26.28
4705;BME280;2366;51.332;6.610;2023-06-14T14:38:59;101412.84;;;29.13;26.18
4705;BME280;2366;51.332;6.610;2023-06-14T14:41:25;101402.84;;;28.98;26.01
4705;BME280;2366;51.332;6.610;2023-06-14T14:43:50;101400.34;;;29.03;26.24
4705;BME280;2366;51.332;6.610;2023-06-14T14:46:15;101405.16;;;29.01;26.21
4705;BME280;2366;51.332;6.610;2023-06-14T14:48:42;101406.56;;;29.19;26.00
4705;BME280;2366;51.332;6.610;2023-06-14T14:51:07;101401.19;;;29.32;25.79
4705;BME280;2366;51.332;6.610;2023-06-14T14:53:32;101393.25;;;29.37;25.92
4705;BME280;2366;51.332;6.610;2023-06-14T14:55:58;101404.16;;;29.37;25.73
4705;BME280;2366;51.332;6.610;2023-06-14T14:58:23;101405.13;;;29.23;25.78
4705;BME280;2366;51.332;6.610;2023-06-14T15:00:48;101408.78;;;29.08;26.24
4705;BME280;2366;51.332;6.610;2023-06-14T15:03:14;101415.28;;;29.07;26.23
4705;BME280;2366;51.332;6.610;2023-06-14T15:05:40;101402.53;;;29.15;26.02
4705;BME280;2366;51.332;6.610;2023-06-14T15:08:06;101395.94;;;29.31;25.68
4705;BME280;2366;51.332;6.610;2023-06-14T15:10:40;101403.88;;;29.25;25.72
4705;BME280;2366;51.332;6.610;2023-06-14T15:13:09;101402.84;;;29.26;25.62
4705;BME280;2366;51.332;6.610;2023-06-14T15:15:35;101400.97;;;29.34;25.26
4705;BME280;2366;51.332;6.610;2023-06-14T15:18:01;101400.78;;;29.35;25.59
4705;BME280;2366;51.332;6.610;2023-06-14T15:20:27;101397.78;;;29.23;25.65
4705;BME280;2366;51.332;6.610;2023-06-14T15:22:53;101394.28;;;29.36;25.82
4705;BME280;2366;51.332;6.610;2023-06-14T15:25:20;101400.91;;;29.20;26.01
4705;BME280;2366;51.332;6.610;2023-06-14T15:27:46;101407.94;;;29.08;26.01
4705;BME280;2366;51.332;6.610;2023-06-14T15:30:12;101411.38;;;29.17;25.63
4705;BME280;2366;51.332;6.610;2023-06-14T15:32:37;101419.84;;;29.00;25.61
4705;BME280;2366;51.332;6.610;2023-06-14T15:35:03;101402.75;;;28.85;26.15
4705;BME280;2366;51.332;6.610;2023-06-14T15:37:28;101415.84;;;28.96;25.86
4705;BME280;2366;51.332;6.610;2023-06-14T15:39:54;101404.50;;;28.99;26.10
4705;BME280;2366;51.332;6.610;2023-06-14T15:42:19;101401.50;;;29.16;25.71
4705;BME280;2366;51.332;6.610;2023-06-14T15:44:44;101400.59;;;29.08;26.12
4705;BME280;2366;51.332;6.610;2023-06-14T15:47:11;101403.19;;;29.17;26.04
4705;BME280;2366;51.332;6.610;2023-06-14T15:49:37;101404.44;;;29.14;26.06
4705;BME280;2366;51.332;6.610;2023-06-14T15:52:02;101417.25;;;29.14;26.16
4705;BME280;2366;51.332;6.610;2023-06-14T15:54:28;101411.63;;;28.94;26.17
4705;BME280;2366;51.332;6.610;2023-06-14T15:56:53;101402.19;;;28.96;25.77
4705;BME280;2366;51.332;6.610;2023-06-14T15:59:18;101405.47;;;28.85;25.65
4705;BME280;2366;51.332;6.610;2023-06-14T16:01:44;101402.16;;;28.90;25.95
4705;BME280;2366;51.332;6.610;2023-06-14T16:04:09;101398.16;;;28.92;26.20
4705;BME280;2366;51.332;6.610;2023-06-14T16:06:34;101396.38;;;29.06;26.04
4705;BME280;2366;51.332;6.610;2023-06-14T16:09:02;101408.41;;;29.12;25.71
4705;BME280;2366;51.332;6.610;2023-06-14T16:11:28;101397.22;;;29.06;25.90
4705;BME280;2366;51.332;6.610;2023-06-14T16:13:54;101402.66;;;29.00;26.07
4705;BME280;2366;51.332;6.610;2023-06-14T16:16:21;101401.03;;;28.84;25.86
4705;BME280;2366;51.332;6.610;2023-06-14T16:18:47;101398.53;;;28.82;26.17
4705;BME280;2366;51.332;6.610;2023-06-14T16:21:12;101402.47;;;28.80;26.15
4705;BME280;2366;51.332;6.610;2023-06-14T16:23:38;101388.06;;;28.86;26.27
4705;BME280;2366;51.332;6.610;2023-06-14T16:26:03;101415.03;;;28.74;26.30
4705;BME280;2366;51.332;6.610;2023-06-14T16:28:30;101389.66;;;28.74;26.09
4705;BME280;2366;51.332;6.610;2023-06-14T16:30:55;101392.91;;;28.62;26.58
4705;BME280;2366;51.332;6.610;2023-06-14T16:33:21;101398.41;;;28.69;26.18
4705;BME280;2366;51.332;6.610;2023-06-14T16:35:46;101399.28;;;28.70;26.19
4705;BME280;2366;51.332;6.610;2023-06-14T16:38:12;101397.34;;;28.63;26.24
4705;BME280;2366;51.332;6.610;2023-06-14T16:40:37;101405.09;;;28.66;26.40
4705;BME280;2366;51.332;6.610;2023-06-14T16:43:02;101408.47;;;28.68;26.26
4705;BME280;2366;51.332;6.610;2023-06-14T16:45:28;101405.75;;;28.68;26.26
4705;BME280;2366;51.332;6.610;2023-06-14T16:47:54;101414.91;;;28.82;26.06
4705;BME280;2366;51.332;6.610;2023-06-14T16:50:19;101419.25;;;28.77;25.82
4705;BME280;2366;51.332;6.610;2023-06-14T16:52:45;101409.22;;;28.56;26.21
4705;BME280;2366;51.332;6.610;2023-06-14T16:55:10;101405.09;;;28.45;26.40
4705;BME280;2366;51.332;6.610;2023-06-14T16:57:37;101413.09;;;28.46;26.67
4705;BME280;2366;51.332;6.610;2023-06-14T17:00:04;101406.16;;;28.44;26.54
4705;BME280;2366;51.332;6.610;2023-06-14T17:02:30;101413.09;;;28.46;26.75
4705;BME280;2366;51.332;6.610;2023-06-14T17:04:55;101415.16;;;28.44;26.41
4705;BME280;2366;51.332;6.610;2023-06-14T17:07:21;101427.78;;;28.45;26.32
4705;BME280;2366;51.332;6.610;2023-06-14T17:09:46;101422.00;;;28.55;26.30
4705;BME280;2366;51.332;6.610;2023-06-14T17:12:12;101422.97;;;28.47;26.41
4705;BME280;2366;51.332;6.610;2023-06-14T17:14:38;101421.53;;;28.52;26.12
4705;BME280;2366;51.332;6.610;2023-06-14T17:17:03;101415.56;;;28.41;26.43
4705;BME280;2366;51.332;6.610;2023-06-14T17:19:29;101423.25;;;28.53;26.42
4705;BME280;2366;51.332;6.610;2023-06-14T17:21:55;101423.31;;;28.59;26.08
4705;BME280;2366;51.332;6.610;2023-06-14T17:24:20;101428.75;;;28.59;26.43
4705;BME280;2366;51.332;6.610;2023-06-14T17:26:46;101432.00;;;28.70;26.39
4705;BME280;2366;51.332;6.610;2023-06-14T17:29:11;101423.31;;;28.59;26.17
4705;BME280;2366;51.332;6.610;2023-06-14T17:31:36;101427.22;;;28.50;25.89
4705;BME280;2366;51.332;6.610;2023-06-14T17:34:02;101435.09;;;28.45;26.00
4705;BME280;2366;51.332;6.610;2023-06-14T17:36:28;101435.47;;;28.42;25.88
4705;BME280;2366;51.332;6.610;2023-06-14T17:38:53;101433.16;;;28.39;25.76
4705;BME280;2366;51.332;6.610;2023-06-14T17:41:18;101431.56;;;28.30;25.96
4705;BME280;2366;51.332;6.610;2023-06-14T17:43:44;101437.38;;;28.41;26.25
4705;BME280;2366;51.332;6.610;2023-06-14T17:46:09;101437.16;;;28.43;26.27
4705;BME280;2366;51.332;6.610;2023-06-14T17:48:35;101436.84;;;28.31;25.68
4705;BME280;2366;51.332;6.610;2023-06-14T17:51:18;101444.56;;;28.27;25.87
4705;BME280;2366;51.332;6.610;2023-06-14T17:53:45;101446.94;;;28.16;26.09
4705;BME280;2366;51.332;6.610;2023-06-14T17:56:10;101445.25;;;28.15;26.21
4705;BME280;2366;51.332;6.610;2023-06-14T17:58:36;101441.69;;;28.14;26.29
4705;BME280;2366;51.332;6.610;2023-06-14T18:01:01;101446.03;;;28.09;26.10
4705;BME280;2366;51.332;6.610;2023-06-14T18:03:27;101440.88;;;27.99;25.93
4705;BME280;2366;51.332;6.610;2023-06-14T18:05:52;101450.63;;;28.08;26.37
4705;BME280;2366;51.332;6.610;2023-06-14T18:08:18;101452.03;;;28.04;26.40
4705;BME280;2366;51.332;6.610;2023-06-14T18:10:43;101454.00;;;28.10;26.29
4705;BME280;2366;51.332;6.610;2023-06-14T18:13:08;101447.91;;;28.08;26.40
4705;BME280;2366;51.332;6.610;2023-06-14T18:15:34;101450.19;;;28.04;26.34
4705;BME280;2366;51.332;6.610;2023-06-14T18:17:59;101451.59;;;28.00;26.50
4705;BME280;2366;51.332;6.610;2023-06-14T18:20:25;101460.13;;;27.97;26.54
4705;BME280;2366;51.332;6.610;2023-06-14T18:22:50;101458.97;;;27.85;26.50
4705;BME280;2366;51.332;6.610;2023-06-14T18:25:16;101457.63;;;27.81;26.66
4705;BME280;2366;51.332;6.610;2023-06-14T18:27:44;101460.34;;;27.81;26.51
4705;BME280;2366;51.332;6.610;2023-06-14T18:30:10;101459.19;;;27.75;26.55
4705;BME280;2366;51.332;6.610;2023-06-14T18:32:36;101470.59;;;27.64;26.37
4705;BME280;2366;51.332;6.610;2023-06-14T18:35:02;101478.75;;;27.64;26.52
4705;BME280;2366;51.332;6.610;2023-06-14T18:37:27;101480.16;;;27.60;26.74
4705;BME280;2366;51.332;6.610;2023-06-14T18:39:53;101478.84;;;27.56;27.08
4705;BME280;2366;51.332;6.610;2023-06-14T18:42:19;101471.91;;;27.53;27.14
4705;BME280;2366;51.332;6.610;2023-06-14T18:44:47;101476.59;;;27.44;27.26
4705;BME280;2366;51.332;6.610;2023-06-14T18:47:12;101480.72;;;27.40;27.43
4705;BME280;2366;51.332;6.610;2023-06-14T18:49:38;101476.97;;;27.41;27.31
4705;BME280;2366;51.332;6.610;2023-06-14T18:52:04;101480.22;;;27.37;27.74
4705;BME280;2366;51.332;6.610;2023-06-14T18:54:30;101474.69;;;27.30;27.69
4705;BME280;2366;51.332;6.610;2023-06-14T18:56:55;101479.19;;;27.23;28.38
4705;BME280;2366;51.332;6.610;2023-06-14T18:59:21;101488.56;;;27.20;28.01